Terminal Aerodrome Forecast
Issued by NWS

Home | Current Version | Previous Version | Graphics & Text | Print | Product List | Glossary On
Versions: 1 2 3 4 5 6 7 8 9 10 11 12 13 14 15 16 17 18
000
FTUS43 KOAX 281300 AAA
TAFCDR
TAF AMD
KCDR 281359Z 2814/2912 06006KT P6SM SCT017
      TEMPO 2814/2816 BKN017
     FM281800 06015G23KT P6SM BKN200
     FM290400 03010KT P6SM VCTS BKN100CB=

USA.gov is the U.S. government's official web portal to all federal, state and local government web resources and services.